createdAt,value
2023-06-11T00:00:53.350Z,75.4
2023-06-11T00:01:54.527Z,75.4
2023-06-11T00:02:56.351Z,75.4
2023-06-11T00:03:57.688Z,75.4
2023-06-11T00:04:59.344Z,75.4
2023-06-11T00:06:00.553Z,75.5
2023-06-11T00:07:01.719Z,75.5
2023-06-11T00:08:03.052Z,75.5
2023-06-11T00:09:04.217Z,75.5
2023-06-11T00:10:05.431Z,75.5
2023-06-11T00:11:06.586Z,75.5
2023-06-11T00:12:07.764Z,75.6
2023-06-11T00:13:08.950Z,75.6
2023-06-11T00:14:10.093Z,75.6
2023-06-11T00:15:12.085Z,75.6
2023-06-11T00:16:13.335Z,75.6
2023-06-11T00:17:14.504Z,75.6
2023-06-11T00:18:15.695Z,75.7
2023-06-11T00:19:16.837Z,75.7
2023-06-11T00:20:18.052Z,75.7
2023-06-11T00:21:19.224Z,75.7
2023-06-11T00:22:20.384Z,75.7
2023-06-11T00:23:21.553Z,75.7
2023-06-11T00:24:22.832Z,75.7
2023-06-11T00:25:24.020Z,75.8
2023-06-11T00:26:25.180Z,75.8
2023-06-11T00:27:26.374Z,75.8
2023-06-11T00:28:27.516Z,75.8
2023-06-11T00:29:28.683Z,75.8
2023-06-11T00:30:29.848Z,75.8
2023-06-11T00:31:31.063Z,75.8
2023-06-11T00:32:32.297Z,75.8
2023-06-11T00:33:33.613Z,75.8
2023-06-11T00:34:34.751Z,75.8
2023-06-11T00:35:35.917Z,75.8
2023-06-11T00:36:37.096Z,75.8
2023-06-11T00:37:38.287Z,75.8
2023-06-11T00:38:39.477Z,75.8
2023-06-11T00:39:40.640Z,75.8
2023-06-11T00:40:41.824Z,75.8
2023-06-11T00:41:42.987Z,75.8
2023-06-11T00:42:44.159Z,75.8
2023-06-11T00:43:45.325Z,75.8
2023-06-11T00:44:46.489Z,75.8
2023-06-11T00:45:47.670Z,75.8
2023-06-11T00:46:48.880Z,75.8
2023-06-11T00:47:50.213Z,75.8
2023-06-11T00:48:51.466Z,75.8
2023-06-11T00:49:52.614Z,75.8
2023-06-11T00:50:53.900Z,75.8
2023-06-11T00:51:55.044Z,75.8
2023-06-11T00:52:56.216Z,75.8
2023-06-11T00:53:57.400Z,75.8
2023-06-11T00:55:00.634Z,75.8
2023-06-11T00:56:01.781Z,75.8
2023-06-11T00:57:02.947Z,75.9
2023-06-11T00:58:04.164Z,75.9
2023-06-11T00:59:05.312Z,75.9
2023-06-11T01:00:06.482Z,75.9
2023-06-11T01:01:07.791Z,75.9
2023-06-11T01:02:08.979Z,75.9
2023-06-11T01:03:10.186Z,75.9
2023-06-11T01:04:11.640Z,75.9
2023-06-11T01:05:14.089Z,75.9
2023-06-11T01:06:15.506Z,75.9
2023-06-11T01:07:16.688Z,75.9
2023-06-11T01:08:17.844Z,75.9
2023-06-11T01:09:19.024Z,75.9
2023-06-11T01:10:20.174Z,75.9
2023-06-11T01:11:21.350Z,75.9
2023-06-11T01:12:22.511Z,75.9
2023-06-11T01:13:23.671Z,75.9
2023-06-11T01:14:24.839Z,76
2023-06-11T01:15:26.008Z,76
2023-06-11T01:16:27.186Z,76
2023-06-11T01:17:28.351Z,76
2023-06-11T01:18:29.509Z,76.1
2023-06-11T01:19:30.747Z,76.1
2023-06-11T01:20:31.888Z,76.1
2023-06-11T01:21:33.052Z,76.1
2023-06-11T01:22:34.226Z,76.2
2023-06-11T01:23:35.772Z,76.2
2023-06-11T01:24:36.932Z,76.2
2023-06-11T01:25:38.108Z,76.2
2023-06-11T01:26:42.216Z,76.3
2023-06-11T01:27:43.381Z,76.3
2023-06-11T01:28:44.548Z,76.3
2023-06-11T01:29:45.716Z,76.3
2023-06-11T01:30:46.935Z,76.3
2023-06-11T01:31:48.272Z,76.3
2023-06-11T01:32:49.652Z,76.3
2023-06-11T01:33:50.817Z,76.3
2023-06-11T01:34:52.033Z,76.3
2023-06-11T01:35:53.243Z,76.3
2023-06-11T01:36:54.382Z,76.3
2023-06-11T01:37:55.553Z,76.3
2023-06-11T01:38:56.721Z,76.3
2023-06-11T01:39:57.886Z,76.3
2023-06-11T01:40:59.110Z,76.3
2023-06-11T01:42:00.280Z,76.3
2023-06-11T01:43:01.445Z,76.3
2023-06-11T01:44:02.613Z,76.3
2023-06-11T01:45:03.774Z,76.3
2023-06-11T01:46:05.036Z,76.4
2023-06-11T01:47:06.245Z,76.4
2023-06-11T01:48:07.675Z,76.4
2023-06-11T01:49:08.855Z,76.4
2023-06-11T01:50:10.046Z,76.4
2023-06-11T01:51:11.191Z,76.4
2023-06-11T01:52:12.396Z,76.4
2023-06-11T01:53:13.552Z,76.4
2023-06-11T01:54:14.694Z,76.5
2023-06-11T01:55:15.881Z,76.5
2023-06-11T01:56:17.041Z,76.5
2023-06-11T01:57:18.209Z,76.5
2023-06-11T01:58:19.370Z,76.5
2023-06-11T01:59:20.540Z,76.5
2023-06-11T02:00:21.715Z,76.5
2023-06-11T02:01:22.909Z,76.5
2023-06-11T02:02:24.154Z,76.5
2023-06-11T02:03:25.537Z,76.5
2023-06-11T02:04:26.726Z,76.5
2023-06-11T02:05:28.033Z,76.5
2023-06-11T02:06:29.212Z,76.6
2023-06-11T02:07:30.366Z,76.6
2023-06-11T02:08:31.514Z,76.6
2023-06-11T02:09:32.733Z,76.6
2023-06-11T02:10:33.962Z,76.6
2023-06-11T02:11:35.231Z,76.6
2023-06-11T02:12:36.448Z,76.6
2023-06-11T02:13:37.640Z,76.7
2023-06-11T02:14:38.798Z,76.7
2023-06-11T02:15:40.024Z,76.7
2023-06-11T02:16:41.283Z,76.7
2023-06-11T02:17:42.680Z,76.7
2023-06-11T02:18:43.835Z,76.7
2023-06-11T02:19:45.085Z,76.8
2023-06-11T02:20:46.360Z,76.8
2023-06-11T02:21:47.513Z,76.8
2023-06-11T02:22:48.720Z,76.8
2023-06-11T02:23:49.946Z,76.8
2023-06-11T02:24:51.161Z,76.8
2023-06-11T02:25:52.369Z,76.8
2023-06-11T02:26:53.521Z,76.8
2023-06-11T02:27:54.667Z,76.8
2023-06-11T02:28:55.847Z,76.8
2023-06-11T02:29:57.042Z,76.8
2023-06-11T02:30:58.258Z,76.8
2023-06-11T02:31:59.615Z,76.8
2023-06-11T02:33:01.094Z,76.8
2023-06-11T02:34:02.291Z,76.8
2023-06-11T02:35:03.432Z,76.8
2023-06-11T02:36:04.624Z,76.8
2023-06-11T02:37:05.764Z,76.8
2023-06-11T02:38:06.932Z,76.8
2023-06-11T02:39:08.102Z,76.8
2023-06-11T02:40:09.273Z,76.8
2023-06-11T02:41:10.435Z,76.8
2023-06-11T02:42:11.597Z,76.8
2023-06-11T02:43:12.768Z,76.9
2023-06-11T02:44:13.931Z,76.9
2023-06-11T02:45:15.097Z,76.9
2023-06-11T02:46:17.283Z,76.9
2023-06-11T02:47:18.441Z,76.9
2023-06-11T02:48:19.618Z,76.9
2023-06-11T02:49:20.765Z,76.9
2023-06-11T02:50:21.945Z,76.9
2023-06-11T02:51:23.179Z,76.9
2023-06-11T02:52:24.317Z,76.9
2023-06-11T02:53:25.486Z,76.9
2023-06-11T02:54:26.662Z,76.9
2023-06-11T02:55:27.852Z,77
2023-06-11T02:56:28.985Z,77
2023-06-11T02:57:30.163Z,77
2023-06-11T02:58:31.324Z,77
2023-06-11T02:59:32.488Z,77
2023-06-11T03:00:33.691Z,77
2023-06-11T03:01:34.844Z,77
2023-06-11T03:02:36.320Z,77
2023-06-11T03:03:37.498Z,77
2023-06-11T03:04:38.649Z,77
2023-06-11T03:05:39.831Z,77
2023-06-11T03:06:41.083Z,77
2023-06-11T03:07:42.288Z,77
2023-06-11T03:08:43.421Z,77
2023-06-11T03:09:44.644Z,77
2023-06-11T03:10:45.842Z,77.1
2023-06-11T03:11:47.073Z,77.1
2023-06-11T03:12:48.267Z,77.1
2023-06-11T03:13:49.413Z,77.1
2023-06-11T03:14:50.620Z,77.1
2023-06-11T03:15:51.962Z,77.1
2023-06-11T03:16:53.173Z,77.1
2023-06-11T03:17:54.506Z,77.1
2023-06-11T03:18:55.720Z,77.1
2023-06-11T03:19:56.942Z,77.1
2023-06-11T03:20:58.297Z,77.1
2023-06-11T03:21:59.526Z,77.1
2023-06-11T03:23:00.663Z,77.1
2023-06-11T03:24:01.950Z,77.2
2023-06-11T03:25:03.109Z,77.2
2023-06-11T03:26:04.258Z,77.2
2023-06-11T03:27:05.419Z,77.2
2023-06-11T03:28:06.762Z,77.2
2023-06-11T03:29:07.926Z,77.2
2023-06-11T03:30:09.122Z,77.2
2023-06-11T03:31:10.376Z,77.2
2023-06-11T03:32:14.055Z,77.2
2023-06-11T03:33:15.221Z,77.2
2023-06-11T03:34:16.386Z,77.2
2023-06-11T03:35:17.555Z,77.2
2023-06-11T03:36:19.218Z,77.3
2023-06-11T03:37:20.417Z,77.3
2023-06-11T03:38:21.569Z,77.3
2023-06-11T03:39:22.757Z,77.3
2023-06-11T03:40:23.904Z,77.3
2023-06-11T03:41:25.061Z,77.3
2023-06-11T03:42:26.227Z,77.3
2023-06-11T03:43:27.415Z,77.4
2023-06-11T03:44:28.568Z,77.4
2023-06-11T03:45:29.737Z,77.4
2023-06-11T03:46:30.969Z,77.4
2023-06-11T03:47:32.155Z,77.4
2023-06-11T03:48:33.323Z,77.4
2023-06-11T03:49:34.485Z,77.4
2023-06-11T03:50:35.659Z,77.5
2023-06-11T03:51:36.821Z,77.5
2023-06-11T03:52:38.035Z,77.5
2023-06-11T03:53:39.180Z,77.5
2023-06-11T03:54:40.361Z,77.5
2023-06-11T03:55:41.570Z,77.5
2023-06-11T03:56:42.954Z,77.6
2023-06-11T03:57:46.480Z,77.6
2023-06-11T03:58:47.666Z,77.6
2023-06-11T03:59:48.835Z,77.6
2023-06-11T04:00:50.024Z,77.6
2023-06-11T04:01:51.212Z,77.6
2023-06-11T04:02:56.671Z,77.6
2023-06-11T04:03:59.719Z,77.6
2023-06-11T04:05:00.964Z,77.6
2023-06-11T04:06:04.550Z,77.6
2023-06-11T04:07:05.693Z,77.6
2023-06-11T04:08:07.021Z,77.6
2023-06-11T04:09:08.165Z,77.6
2023-06-11T04:10:09.421Z,77.6
2023-06-11T04:11:10.585Z,77.6
2023-06-11T04:12:12.096Z,77.6
2023-06-11T04:13:13.588Z,77.6
2023-06-11T04:14:14.861Z,77.6
2023-06-11T04:15:16.120Z,77.6
2023-06-11T04:16:17.357Z,77.6
2023-06-11T04:17:18.826Z,77.6
2023-06-11T04:18:19.995Z,77.6
2023-06-11T04:19:21.188Z,77.6
2023-06-11T04:20:22.562Z,77.6
2023-06-11T04:21:23.839Z,77.6
2023-06-11T04:22:25.080Z,77.6
2023-06-11T04:23:26.482Z,77.6
2023-06-11T04:24:27.905Z,77.6
2023-06-11T04:25:29.266Z,77.6
2023-06-11T04:26:30.468Z,77.6
2023-06-11T04:27:31.660Z,77.6
2023-06-11T04:28:32.995Z,77.6
2023-06-11T04:29:34.197Z,77.6
2023-06-11T04:30:35.596Z,77.6
2023-06-11T04:31:40.028Z,77.6
2023-06-11T04:32:41.389Z,77.6
2023-06-11T04:33:42.632Z,77.6
2023-06-11T04:34:43.767Z,77.6
2023-06-11T04:35:45.047Z,77.6
2023-06-11T04:36:46.268Z,77.7
2023-06-11T04:37:47.504Z,77.7
2023-06-11T04:38:48.981Z,77.7
2023-06-11T04:39:52.969Z,77.7
2023-06-11T04:40:54.159Z,77.7
2023-06-11T04:41:55.403Z,77.7
2023-06-11T04:42:56.580Z,77.7
2023-06-11T04:43:57.812Z,77.7
2023-06-11T04:44:58.955Z,77.7
2023-06-11T04:46:00.130Z,77.7
2023-06-11T04:47:01.391Z,77.7
2023-06-11T04:48:02.843Z,77.7
2023-06-11T04:49:04.014Z,77.7
2023-06-11T04:50:05.252Z,77.7
2023-06-11T04:51:06.409Z,77.7
2023-06-11T04:52:07.574Z,77.8
2023-06-11T04:53:08.786Z,77.8
2023-06-11T04:54:12.658Z,77.8
2023-06-11T04:55:14.607Z,77.8
2023-06-11T04:56:15.826Z,77.8
2023-06-11T04:57:17.020Z,77.8
2023-06-11T04:58:18.177Z,77.8
2023-06-11T04:59:19.341Z,77.8
2023-06-11T05:00:20.520Z,77.8
2023-06-11T05:01:21.739Z,77.9
2023-06-11T05:02:23.266Z,77.9
2023-06-11T05:03:24.531Z,77.9
2023-06-11T05:04:25.954Z,77.9
2023-06-11T05:05:27.310Z,77.9
2023-06-11T05:06:28.665Z,78
2023-06-11T05:07:30.014Z,78
2023-06-11T05:08:31.319Z,78
2023-06-11T05:09:32.609Z,78
2023-06-11T05:10:33.838Z,78
2023-06-11T05:11:35.019Z,78
2023-06-11T05:12:36.262Z,78.1
2023-06-11T05:13:37.517Z,78.1
2023-06-11T05:14:38.646Z,78.1
2023-06-11T05:15:39.811Z,78.1
2023-06-11T05:16:41.361Z,78.1
2023-06-11T05:17:42.628Z,78.1
2023-06-11T05:18:43.854Z,78.1
2023-06-11T05:19:45.053Z,78.2
2023-06-11T05:20:46.195Z,78.2
2023-06-11T05:21:47.360Z,78.2
2023-06-11T05:22:48.524Z,78.2
2023-06-11T05:23:49.778Z,78.2
2023-06-11T05:24:51.182Z,78.3
2023-06-11T05:25:52.409Z,78.3
2023-06-11T05:26:53.621Z,78.3
2023-06-11T05:27:55.005Z,78.3
2023-06-11T05:28:56.172Z,78.3
2023-06-11T05:29:57.502Z,78.3
2023-06-11T05:30:58.638Z,78.4
2023-06-11T05:31:59.993Z,78.4
2023-06-11T05:33:01.418Z,78.4
2023-06-11T05:34:02.723Z,78.4
2023-06-11T05:35:06.890Z,78.4
2023-06-11T05:36:08.029Z,78.5
2023-06-11T05:37:09.203Z,78.5
2023-06-11T05:38:10.424Z,78.5
2023-06-11T05:39:11.633Z,78.5
2023-06-11T05:40:12.921Z,78.5
2023-06-11T05:41:14.196Z,78.6
2023-06-11T05:42:15.725Z,78.6
2023-06-11T05:43:17.003Z,78.6
2023-06-11T05:44:18.173Z,78.6
2023-06-11T05:45:19.401Z,78.6
2023-06-11T05:46:20.868Z,78.6
2023-06-11T05:47:22.448Z,78.7
2023-06-11T05:48:23.909Z,78.7
2023-06-11T05:49:25.119Z,78.7
2023-06-11T05:50:26.390Z,78.8
2023-06-11T05:51:27.573Z,78.8
2023-06-11T05:52:29.203Z,78.9
2023-06-11T05:53:30.476Z,79
2023-06-11T05:54:31.660Z,79
2023-06-11T05:55:32.980Z,79.1
2023-06-11T05:56:34.133Z,79.1
2023-06-11T05:57:38.214Z,79.2
2023-06-11T05:58:39.352Z,79.2
2023-06-11T05:59:42.761Z,79.2
2023-06-11T06:00:43.938Z,79.2
2023-06-11T06:01:45.110Z,79.2
2023-06-11T06:02:49.502Z,79.2
2023-06-11T06:03:51.289Z,79.2
2023-06-11T06:04:55.646Z,79.1
2023-06-11T06:05:59.387Z,79.1
2023-06-11T06:07:00.533Z,79.1
2023-06-11T06:08:04.699Z,79.1
2023-06-11T06:09:05.931Z,79
2023-06-11T06:10:07.119Z,79
2023-06-11T06:11:08.329Z,79.1
2023-06-11T06:12:09.475Z,79.1
2023-06-11T06:13:10.629Z,79.1
2023-06-11T06:14:14.578Z,79.1
2023-06-11T06:15:15.800Z,79.1
2023-06-11T06:16:19.915Z,79
2023-06-11T06:17:21.150Z,79
2023-06-11T06:18:24.370Z,78.9
2023-06-11T06:19:25.560Z,78.8
2023-06-11T06:20:26.778Z,78.8
2023-06-11T06:21:27.994Z,78.7
2023-06-11T06:22:38.378Z,78.7
2023-06-11T06:23:41.949Z,78.6
2023-06-11T06:24:43.115Z,78.6
2023-06-11T06:25:46.646Z,78.6
2023-06-11T06:26:47.951Z,78.5
2023-06-11T06:27:49.155Z,78.5
2023-06-11T06:28:53.198Z,78.4
2023-06-11T06:29:54.410Z,78.3
2023-06-11T06:30:58.301Z,78.3
2023-06-11T06:31:59.736Z,78.2
2023-06-11T06:33:01.455Z,78.2
2023-06-11T06:34:05.527Z,78.1
2023-06-11T06:35:06.737Z,78
2023-06-11T06:36:10.982Z,78
2023-06-11T06:37:12.166Z,77.9
2023-06-11T06:38:13.336Z,77.9
2023-06-11T06:39:16.691Z,77.9
2023-06-11T06:40:23.128Z,77.8
2023-06-11T06:41:27.045Z,77.8
2023-06-11T06:42:30.789Z,77.7
2023-06-11T06:43:31.923Z,77.6
2023-06-11T06:44:33.132Z,77.4
2023-06-11T06:45:34.324Z,77.3
2023-06-11T06:46:35.487Z,77.2
2023-06-11T06:47:36.946Z,77
2023-06-11T06:48:38.558Z,76.8
2023-06-11T06:49:39.859Z,76.6
2023-06-11T06:50:41.066Z,76.4
2023-06-11T06:51:42.216Z,76.2
2023-06-11T06:52:43.457Z,76
2023-06-11T06:53:44.661Z,75.8
2023-06-11T06:54:45.833Z,75.5
2023-06-11T06:55:46.998Z,75.2
2023-06-11T06:56:48.148Z,74.9
2023-06-11T06:57:49.645Z,74.6
2023-06-11T06:58:50.825Z,74.4
2023-06-11T06:59:51.983Z,74.1
2023-06-11T07:00:53.200Z,73.8
2023-06-11T07:01:54.369Z,73.5
2023-06-11T07:02:55.797Z,73.1
2023-06-11T07:03:56.957Z,72.8
2023-06-11T07:04:58.144Z,72.4
2023-06-11T07:05:59.330Z,72.1
2023-06-11T07:07:00.536Z,71.7
2023-06-11T07:08:01.698Z,71.4
2023-06-11T07:09:02.862Z,71.1
2023-06-11T07:10:04.034Z,70.7
2023-06-11T07:11:05.197Z,70.4
2023-06-11T07:12:06.367Z,70.1
2023-06-11T07:13:07.578Z,69.8
2023-06-11T07:14:08.713Z,69.5
2023-06-11T07:15:09.909Z,69.3
2023-06-11T07:16:11.235Z,68.9
2023-06-11T07:17:12.539Z,68.6
2023-06-11T07:18:13.901Z,68.2
2023-06-11T07:19:15.032Z,67.9
2023-06-11T07:20:20.194Z,67.6
2023-06-11T07:21:21.376Z,67.3
2023-06-11T07:22:22.431Z,67
2023-06-11T07:23:23.967Z,66.8
2023-06-11T07:24:25.555Z,66.6
2023-06-11T07:25:26.807Z,66.4
2023-06-11T07:26:27.996Z,66.2
2023-06-11T07:27:29.179Z,66.1
2023-06-11T07:28:30.465Z,65.7
2023-06-11T07:29:31.632Z,65.4
2023-06-11T07:30:32.854Z,65.1
2023-06-11T07:31:34.389Z,64.9
2023-06-11T07:32:35.649Z,64.6
2023-06-11T07:33:36.844Z,64.3
2023-06-11T07:34:38.011Z,64
2023-06-11T07:35:39.245Z,63.7
2023-06-11T07:36:40.436Z,63.4
2023-06-11T07:37:41.573Z,63.2
2023-06-11T07:38:42.748Z,62.9
2023-06-11T07:39:43.902Z,62.6
2023-06-11T07:40:45.105Z,62.4
2023-06-11T07:41:46.264Z,62.1
2023-06-11T07:42:47.473Z,61.9
2023-06-11T07:43:48.670Z,61.7
2023-06-11T07:44:49.813Z,61.5
2023-06-11T07:45:50.991Z,61.3
2023-06-11T07:46:52.257Z,61
2023-06-11T07:47:53.677Z,60.8
2023-06-11T07:48:54.864Z,60.5
2023-06-11T07:49:56.031Z,60.3
2023-06-11T07:50:57.202Z,60
2023-06-11T07:51:58.361Z,59.8
2023-06-11T07:52:59.536Z,59.6
2023-06-11T07:54:00.712Z,59.5
2023-06-11T07:55:01.881Z,58.4
2023-06-11T07:56:03.052Z,57.3
2023-06-11T07:57:04.216Z,56
2023-06-11T07:58:05.388Z,55
2023-06-11T07:59:06.701Z,54.1
2023-06-11T08:00:07.724Z,53.2
2023-06-11T08:01:08.883Z,52.3
2023-06-11T08:02:10.140Z,51.3
2023-06-11T08:03:11.351Z,50.6
2023-06-11T08:04:12.565Z,49.8
2023-06-11T08:05:13.851Z,48.9
2023-06-11T08:06:15.458Z,48.3
2023-06-11T08:07:16.637Z,47.8
2023-06-11T08:08:17.796Z,47.3
2023-06-11T08:09:18.970Z,46.9
2023-06-11T08:10:20.134Z,46.6
2023-06-11T08:11:21.312Z,46.3
2023-06-11T08:12:22.463Z,45.8
2023-06-11T08:13:23.911Z,45.4
2023-06-11T08:14:25.213Z,45.2
2023-06-11T08:15:26.378Z,45.1
2023-06-11T08:16:27.562Z,44.7
2023-06-11T08:17:28.758Z,44.3
2023-06-11T08:18:29.930Z,44
2023-06-11T08:19:31.098Z,43.6
2023-06-11T08:20:32.248Z,43.3
2023-06-11T08:21:33.421Z,43.1
2023-06-11T08:22:34.581Z,42.9
2023-06-11T08:23:35.771Z,42.5
2023-06-11T08:24:36.933Z,42.2
2023-06-11T08:25:40.626Z,41.9
2023-06-11T08:26:41.860Z,41.6
2023-06-11T08:27:43.012Z,41.5
2023-06-11T08:28:44.261Z,41.1
2023-06-11T08:29:45.448Z,40.7
2023-06-11T08:30:46.579Z,40.4
2023-06-11T08:31:50.859Z,40.3
2023-06-11T08:32:52.639Z,40.3
2023-06-11T08:33:54.600Z,40.3
2023-06-11T08:34:55.768Z,40.2
2023-06-11T08:35:56.961Z,40
2023-06-11T08:36:58.115Z,39.9
2023-06-11T08:37:59.275Z,39.8
2023-06-11T08:39:00.443Z,39.6
2023-06-11T08:40:01.622Z,39.5
2023-06-11T08:41:02.852Z,39.4
2023-06-11T08:42:07.092Z,39.4
2023-06-11T08:43:08.248Z,39.4
2023-06-11T08:44:09.416Z,39.4
2023-06-11T08:45:10.646Z,39.2
2023-06-11T08:46:11.888Z,38.9
2023-06-11T08:47:13.091Z,38.8
2023-06-11T08:48:14.402Z,38.6
2023-06-11T08:49:18.478Z,38.5
2023-06-11T08:50:19.641Z,38.3
2023-06-11T08:51:20.801Z,38.3
2023-06-11T08:52:21.981Z,38.2
2023-06-11T08:53:23.135Z,38
2023-06-11T08:54:24.338Z,37.8
2023-06-11T08:55:25.511Z,37.6
2023-06-11T08:56:26.852Z,37.5
2023-06-11T08:57:28.030Z,37.3
2023-06-11T08:58:29.171Z,37.1
2023-06-11T08:59:30.358Z,36.9
2023-06-11T09:00:31.564Z,36.8
2023-06-11T09:01:32.833Z,36.7
2023-06-11T09:02:34.194Z,36.6
2023-06-11T09:03:35.377Z,36.6
2023-06-11T09:04:36.525Z,36.5
2023-06-11T09:05:37.714Z,36.4
2023-06-11T09:06:38.861Z,36.3
2023-06-11T09:07:40.024Z,36.1
2023-06-11T09:08:41.197Z,36.2
2023-06-11T09:09:42.357Z,36.2
2023-06-11T09:10:43.530Z,36.2
2023-06-11T09:11:44.700Z,36.3
2023-06-11T09:12:45.858Z,36.2
2023-06-11T09:13:47.022Z,36.1
2023-06-11T09:14:48.192Z,36
2023-06-11T09:15:49.586Z,35.9
2023-06-11T09:16:51.059Z,35.8
2023-06-11T09:17:52.345Z,35.6
2023-06-11T09:18:53.508Z,35.1
2023-06-11T09:19:54.668Z,34.7
2023-06-11T09:20:55.842Z,34.6
2023-06-11T09:21:57.014Z,34.6
2023-06-11T09:22:58.234Z,34.6
2023-06-11T09:23:59.508Z,34.5
2023-06-11T09:25:00.690Z,34.4
2023-06-11T09:26:02.071Z,34.3
2023-06-11T09:27:03.222Z,34.2
2023-06-11T09:28:04.390Z,34
2023-06-11T09:29:11.012Z,33.9
2023-06-11T09:30:13.496Z,33.6
2023-06-11T09:31:15.043Z,33.5
2023-06-11T09:32:35.436Z,33.5
2023-06-11T09:33:36.635Z,33.2
2023-06-11T09:34:40.657Z,33.1
2023-06-11T09:35:41.785Z,32.9
2023-06-11T09:36:42.971Z,32.8
2023-06-11T09:37:44.246Z,32.7
2023-06-11T09:38:45.425Z,32.6
2023-06-11T09:39:46.597Z,32.3
2023-06-11T09:40:50.897Z,32.1
2023-06-11T09:41:52.113Z,31.9
2023-06-11T09:42:55.941Z,31.8
2023-06-11T09:43:57.143Z,31.1
2023-06-11T09:44:58.306Z,30.3
2023-06-11T09:45:59.180Z,29.9
2023-06-11T09:47:04.133Z,29.1
2023-06-11T09:48:08.460Z,28.8
2023-06-11T09:49:09.682Z,28.5
2023-06-11T09:50:40.373Z,28.3
2023-06-11T09:51:41.744Z,28.1
2023-06-11T09:52:42.894Z,27.8
2023-06-11T09:53:44.072Z,27.6
2023-06-11T09:54:47.987Z,27.6
2023-06-11T09:56:12.133Z,27.8
2023-06-11T09:57:16.208Z,27.7
2023-06-11T09:58:17.412Z,27.7
2023-06-11T09:59:21.273Z,27.7
2023-06-11T10:00:22.462Z,27.4
2023-06-11T10:01:41.315Z,26.9
2023-06-11T10:03:00.184Z,26.8
2023-06-11T10:04:04.404Z,26.8
2023-06-11T10:05:05.674Z,27
2023-06-11T10:06:09.380Z,27.1
2023-06-11T10:07:10.554Z,27.2
2023-06-11T10:09:19.864Z,27.4
2023-06-11T10:10:30.112Z,27.2
2023-06-11T10:11:31.243Z,27.1
2023-06-11T10:12:32.404Z,27.1
2023-06-11T10:13:37.191Z,27
2023-06-11T10:14:44.235Z,26.8
2023-06-11T10:15:48.055Z,26.4
2023-06-11T10:16:54.721Z,25.6
2023-06-11T10:18:03.579Z,25.2
2023-06-11T10:19:04.799Z,25.1
2023-06-11T10:20:05.992Z,25.2
2023-06-11T10:21:09.984Z,25.4
2023-06-11T10:22:11.178Z,25.5
2023-06-11T10:23:12.463Z,25.7
2023-06-11T10:24:22.530Z,25.8
2023-06-11T10:25:28.685Z,25.6
2023-06-11T10:26:29.996Z,25.4
2023-06-11T10:27:31.199Z,25.2
2023-06-11T10:28:35.064Z,25.2
2023-06-11T10:29:36.278Z,25.1
2023-06-11T10:31:43.926Z,24.7
2023-06-11T10:32:45.166Z,24.6
2023-06-11T10:33:46.724Z,24.4
2023-06-11T10:34:48.316Z,24.2
2023-06-11T10:35:49.572Z,24
2023-06-11T10:36:55.973Z,23.9
2023-06-11T10:37:57.146Z,23.9
2023-06-11T10:38:58.362Z,23.6
2023-06-11T10:39:59.559Z,23.6
2023-06-11T10:41:00.742Z,23.7
2023-06-11T10:42:04.628Z,23.9
2023-06-11T10:43:14.707Z,24.1
2023-06-11T10:44:15.903Z,23.9
2023-06-11T10:46:28.410Z,23.8
2023-06-11T10:47:29.628Z,23.7
2023-06-11T10:49:42.726Z,23.5
2023-06-11T10:50:43.900Z,23.6
2023-06-11T10:51:45.071Z,23.6
2023-06-11T10:52:49.207Z,23.6
2023-06-11T10:54:08.199Z,23.6
2023-06-11T10:56:28.899Z,23.1
2023-06-11T10:57:30.040Z,23
2023-06-11T10:58:31.207Z,23
2023-06-11T10:59:32.373Z,22.8
2023-06-11T11:00:36.196Z,22.9
2023-06-11T11:01:37.529Z,22.9
2023-06-11T11:02:39.018Z,22.9
2023-06-11T11:03:43.242Z,22.9
2023-06-11T11:04:47.459Z,23
2023-06-11T11:05:57.626Z,23
2023-06-11T11:07:09.590Z,23.1
2023-06-11T11:08:14.503Z,23.3
2023-06-11T11:09:16.522Z,23.4
2023-06-11T11:10:17.693Z,23.6
2023-06-11T11:11:24.624Z,23.6
2023-06-11T11:12:25.828Z,23.8
2023-06-11T11:13:26.980Z,23.7
2023-06-11T11:14:30.740Z,23.7
2023-06-11T11:15:31.909Z,23.7
2023-06-11T11:16:33.226Z,23.7
2023-06-11T11:17:43.570Z,23.6
2023-06-11T11:18:44.744Z,23.6
2023-06-11T11:19:45.938Z,23.4
2023-06-11T11:20:47.134Z,23.2
2023-06-11T11:21:53.563Z,22.9
2023-06-11T11:23:00.095Z,22.7
2023-06-11T11:24:03.828Z,22.6
2023-06-11T11:25:05.012Z,22.6
2023-06-11T11:26:14.914Z,22.7
2023-06-11T11:27:19.158Z,22.8
2023-06-11T11:28:20.356Z,22.8
2023-06-11T11:29:30.601Z,23
2023-06-11T11:30:36.903Z,22.7
2023-06-11T11:31:38.211Z,22.3
2023-06-11T11:32:49.766Z,22.1
2023-06-11T11:33:53.889Z,22.2
2023-06-11T11:35:00.679Z,22.4
2023-06-11T11:36:09.035Z,22.4
2023-06-11T11:37:10.176Z,22.3
2023-06-11T11:38:17.078Z,22.5
2023-06-11T11:40:47.900Z,22.5
2023-06-11T11:42:02.968Z,22.2
2023-06-11T11:43:13.421Z,22.2
2023-06-11T11:44:17.771Z,21.9
2023-06-11T11:45:18.948Z,21.8
2023-06-11T11:46:22.805Z,21.9
2023-06-11T11:47:27.214Z,21.9
2023-06-11T11:49:37.218Z,21.3
2023-06-11T11:50:46.986Z,21.1
2023-06-11T11:51:48.388Z,20.8
2023-06-11T11:52:51.690Z,20.6
2023-06-11T11:53:52.829Z,20.6
2023-06-11T11:54:53.988Z,20.5
2023-06-11T11:56:10.753Z,20.6
2023-06-11T11:57:16.986Z,20.7
2023-06-11T11:58:18.178Z,20.7
2023-06-11T11:59:19.369Z,20.5
2023-06-11T12:00:22.730Z,20.4
2023-06-11T12:01:27.924Z,20.4
2023-06-11T12:02:32.154Z,20
2023-06-11T12:03:36.828Z,20
2023-06-11T12:04:38.112Z,20.1
2023-06-11T12:05:39.591Z,20.2
2023-06-11T12:06:40.746Z,20.3
2023-06-11T12:07:44.827Z,20.3
2023-06-11T12:08:46.081Z,20.4
2023-06-11T12:09:47.251Z,20.5
2023-06-11T12:10:53.740Z,20.5
2023-06-11T12:12:09.075Z,20.5
2023-06-11T12:13:13.014Z,20.6
2023-06-11T12:14:14.208Z,20.4
2023-06-11T12:15:15.466Z,20.4
2023-06-11T12:16:19.680Z,20.4
2023-06-11T12:17:20.933Z,20.4
2023-06-11T12:18:22.107Z,20.5
2023-06-11T12:19:25.273Z,20.6
2023-06-11T12:20:26.422Z,20.6
2023-06-11T12:21:30.186Z,20.7
2023-06-11T12:22:31.328Z,20.9
2023-06-11T12:23:32.553Z,20.9
2023-06-11T12:24:34.195Z,20.8
2023-06-11T12:25:35.489Z,20.8
2023-06-11T12:26:36.696Z,20.9
2023-06-11T12:27:40.812Z,20.9
2023-06-11T12:28:49.346Z,20.9
2023-06-11T12:29:53.505Z,20.9
2023-06-11T12:30:56.876Z,20.9
2023-06-11T12:31:58.366Z,20.8
2023-06-11T12:33:09.938Z,20.8
2023-06-11T12:34:13.709Z,20.9
2023-06-11T12:35:22.033Z,21
2023-06-11T12:36:25.975Z,21
2023-06-11T12:37:29.741Z,20.8
2023-06-11T12:38:37.342Z,20.7
2023-06-11T12:39:43.623Z,20.6
2023-06-11T12:40:47.632Z,20.6
2023-06-11T12:41:56.163Z,20.6
2023-06-11T12:44:03.401Z,20.6
2023-06-11T12:45:05.342Z,20.5
2023-06-11T12:46:09.347Z,20.6
2023-06-11T12:47:16.394Z,20.7
2023-06-11T12:48:20.546Z,20.8
2023-06-11T12:49:24.225Z,20.9
2023-06-11T12:50:34.379Z,21
2023-06-11T12:51:38.175Z,21.2
2023-06-11T12:52:39.328Z,21.1
2023-06-11T12:53:40.539Z,21.1
2023-06-11T12:54:44.520Z,21.2
2023-06-11T12:55:45.709Z,21.1
2023-06-11T12:56:49.881Z,21
2023-06-11T12:57:53.909Z,20.6
2023-06-11T12:58:57.889Z,20.6
2023-06-11T12:59:59.022Z,20.6
2023-06-11T13:01:00.304Z,20.7
2023-06-11T13:02:01.466Z,20.7
2023-06-11T13:03:02.669Z,20.7
2023-06-11T13:04:09.428Z,20.7
2023-06-11T13:05:10.632Z,20.7
2023-06-11T13:06:11.809Z,20.4
2023-06-11T13:07:12.968Z,20.4
2023-06-11T13:08:14.368Z,20.2
2023-06-11T13:09:15.567Z,20.2
2023-06-11T13:10:17.210Z,20.2
2023-06-11T13:11:21.052Z,20.1
2023-06-11T13:12:24.546Z,20.2
2023-06-11T13:13:31.013Z,20.3
2023-06-11T13:14:32.189Z,20.3
2023-06-11T13:15:33.455Z,20.3
2023-06-11T13:16:34.800Z,20.4
2023-06-11T13:17:36.684Z,20.5
2023-06-11T13:18:40.525Z,20.7
2023-06-11T13:19:41.668Z,20.8
2023-06-11T13:20:45.830Z,20.9
2023-06-11T13:21:52.691Z,20.9
2023-06-11T13:22:56.764Z,21.1
2023-06-11T13:24:00.610Z,21.1
2023-06-11T13:25:04.811Z,21.1
2023-06-11T13:26:08.107Z,21.1
2023-06-11T13:27:11.659Z,21
2023-06-11T13:28:23.267Z,20.7
2023-06-11T13:29:24.429Z,20.5
2023-06-11T13:30:28.296Z,20.5
2023-06-11T13:31:39.541Z,20.5
2023-06-11T13:32:43.691Z,20.5
2023-06-11T13:33:44.852Z,20.5
2023-06-11T13:34:53.681Z,20.5
2023-06-11T13:36:06.826Z,20.6
2023-06-11T13:37:07.965Z,20.6
2023-06-11T13:38:09.136Z,20.6
2023-06-11T13:39:10.309Z,20.6
2023-06-11T13:40:12.842Z,20.7
2023-06-11T13:41:14.431Z,20.6
2023-06-11T13:42:45.209Z,20.7
2023-06-11T13:44:10.509Z,20.7
2023-06-11T13:47:28.857Z,21
2023-06-11T13:48:32.976Z,21
2023-06-11T13:49:44.823Z,21
2023-06-11T13:50:57.850Z,21
2023-06-11T13:52:07.819Z,21
2023-06-11T13:53:22.201Z,21.2
2023-06-11T13:54:44.545Z,21.3
2023-06-11T13:55:48.452Z,21.5
2023-06-11T13:56:49.734Z,21.5
2023-06-11T13:58:50.221Z,21.5
2023-06-11T14:07:05.282Z,21.8
2023-06-11T14:08:06.466Z,21.9
2023-06-11T14:09:10.145Z,21.9
2023-06-11T14:10:12.476Z,22
2023-06-11T14:11:19.338Z,22
2023-06-11T14:12:27.794Z,21.7
2023-06-11T14:13:31.763Z,20.7
2023-06-11T14:15:35.879Z,20.3
2023-06-11T14:16:42.447Z,20